sensor_id;sensor_type;location;lat;lon;timestamp;temperature;humidity
16829;DHT22;8531;48.078;11.968;2023-06-05T00:02:02;18.00;99.90
16829;DHT22;8531;48.078;11.968;2023-06-05T00:04:28;18.00;99.90
16829;DHT22;8531;48.078;11.968;2023-06-05T00:06:54;18.10;99.90
16829;DHT22;8531;48.078;11.968;2023-06-05T00:09:20;18.10;99.90
16829;DHT22;8531;48.078;11.968;2023-06-05T00:11:46;18.00;99.90
16829;DHT22;8531;48.078;11.968;2023-06-05T00:14:11;17.90;99.90
16829;DHT22;8531;48.078;11.968;2023-06-05T00:16:37;17.90;99.90
16829;DHT22;8531;48.078;11.968;2023-06-05T00:19:03;17.90;99.90
16829;DHT22;8531;48.078;11.968;2023-06-05T00:21:29;17.80;99.90
16829;DHT22;8531;48.078;11.968;2023-06-05T00:23:55;17.70;99.90
16829;DHT22;8531;48.078;11.968;2023-06-05T00:26:21;17.60;99.90
16829;DHT22;8531;48.078;11.968;2023-06-05T00:28:47;17.80;99.90
16829;DHT22;8531;48.078;11.968;2023-06-05T00:31:13;17.60;99.90
16829;DHT22;8531;48.078;11.968;2023-06-05T00:33:39;17.40;99.90
16829;DHT22;8531;48.078;11.968;2023-06-05T00:36:05;17.40;99.90
16829;DHT22;8531;48.078;11.968;2023-06-05T00:38:32;17.40;99.90
16829;DHT22;8531;48.078;11.968;2023-06-05T00:40:57;17.40;99.90
16829;DHT22;8531;48.078;11.968;2023-06-05T00:43:23;17.20;99.90
16829;DHT22;8531;48.078;11.968;2023-06-05T00:45:50;17.20;99.90
16829;DHT22;8531;48.078;11.968;2023-06-05T00:48:18;17.10;99.90
16829;DHT22;8531;48.078;11.968;2023-06-05T00:50:43;17.20;99.90
16829;DHT22;8531;48.078;11.968;2023-06-05T00:53:09;17.10;99.90
16829;DHT22;8531;48.078;11.968;2023-06-05T00:55:35;17.20;99.90
16829;DHT22;8531;48.078;11.968;2023-06-05T00:58:02;17.20;99.90
16829;DHT22;8531;48.078;11.968;2023-06-05T01:00:29;17.20;99.90
16829;DHT22;8531;48.078;11.968;2023-06-05T01:02:55;17.10;99.90
16829;DHT22;8531;48.078;11.968;2023-06-05T01:05:22;17.20;99.90
16829;DHT22;8531;48.078;11.968;2023-06-05T01:07:49;17.30;99.90
16829;DHT22;8531;48.078;11.968;2023-06-05T01:10:15;17.20;99.90
16829;DHT22;8531;48.078;11.968;2023-06-05T01:13:04;17.30;99.90
16829;DHT22;8531;48.078;11.968;2023-06-05T01:15:32;17.20;99.90
16829;DHT22;8531;48.078;11.968;2023-06-05T01:17:59;17.20;99.90
16829;DHT22;8531;48.078;11.968;2023-06-05T01:20:35;17.30;99.90
16829;DHT22;8531;48.078;11.968;2023-06-05T01:23:05;17.30;99.90
16829;DHT22;8531;48.078;11.968;2023-06-05T01:25:31;17.30;99.90
16829;DHT22;8531;48.078;11.968;2023-06-05T01:30:40;17.20;99.90
16829;DHT22;8531;48.078;11.968;2023-06-05T01:33:08;17.20;99.90
16829;DHT22;8531;48.078;11.968;2023-06-05T01:35:38;17.20;99.90
16829;DHT22;8531;48.078;11.968;2023-06-05T01:38:06;17.10;99.90
16829;DHT22;8531;48.078;11.968;2023-06-05T01:40:35;17.00;99.90
16829;DHT22;8531;48.078;11.968;2023-06-05T01:43:02;17.00;99.90
16829;DHT22;8531;48.078;11.968;2023-06-05T01:45:28;17.00;99.90
16829;DHT22;8531;48.078;11.968;2023-06-05T01:47:55;17.00;99.90
16829;DHT22;8531;48.078;11.968;2023-06-05T01:50:22;17.00;99.90
16829;DHT22;8531;48.078;11.968;2023-06-05T01:52:48;16.90;99.90
16829;DHT22;8531;48.078;11.968;2023-06-05T01:55:19;16.90;99.90
16829;DHT22;8531;48.078;11.968;2023-06-05T01:57:49;16.90;99.90
16829;DHT22;8531;48.078;11.968;2023-06-05T02:00:16;16.80;99.90
16829;DHT22;8531;48.078;11.968;2023-06-05T02:02:43;17.00;99.90
16829;DHT22;8531;48.078;11.968;2023-06-05T02:05:11;17.00;99.90
16829;DHT22;8531;48.078;11.968;2023-06-05T02:07:46;17.10;99.90
16829;DHT22;8531;48.078;11.968;2023-06-05T02:10:14;17.10;99.90
16829;DHT22;8531;48.078;11.968;2023-06-05T02:12:40;17.10;99.90
16829;DHT22;8531;48.078;11.968;2023-06-05T02:15:08;17.00;99.90
16829;DHT22;8531;48.078;11.968;2023-06-05T02:17:38;17.00;99.90
16829;DHT22;8531;48.078;11.968;2023-06-05T02:20:05;17.00;99.90
16829;DHT22;8531;48.078;11.968;2023-06-05T02:22:30;17.00;99.90
16829;DHT22;8531;48.078;11.968;2023-06-05T02:24:56;17.00;99.90
16829;DHT22;8531;48.078;11.968;2023-06-05T02:27:22;17.00;99.90
16829;DHT22;8531;48.078;11.968;2023-06-05T02:29:50;16.90;99.90
16829;DHT22;8531;48.078;11.968;2023-06-05T02:32:16;16.80;99.90
16829;DHT22;8531;48.078;11.968;2023-06-05T02:34:41;16.80;99.90
16829;DHT22;8531;48.078;11.968;2023-06-05T02:37:07;16.80;99.90
16829;DHT22;8531;48.078;11.968;2023-06-05T02:39:33;16.80;99.90
16829;DHT22;8531;48.078;11.968;2023-06-05T02:41:59;16.80;99.90
16829;DHT22;8531;48.078;11.968;2023-06-05T02:44:25;16.70;99.90
16829;DHT22;8531;48.078;11.968;2023-06-05T02:46:51;16.70;99.90
16829;DHT22;8531;48.078;11.968;2023-06-05T02:49:17;16.60;99.90
16829;DHT22;8531;48.078;11.968;2023-06-05T02:51:44;16.60;99.90
16829;DHT22;8531;48.078;11.968;2023-06-05T02:54:10;16.50;99.90
16829;DHT22;8531;48.078;11.968;2023-06-05T02:56:36;16.50;99.90
16829;DHT22;8531;48.078;11.968;2023-06-05T02:59:02;16.50;99.90
16829;DHT22;8531;48.078;11.968;2023-06-05T03:01:28;16.60;99.90
16829;DHT22;8531;48.078;11.968;2023-06-05T03:04:00;16.70;99.90
16829;DHT22;8531;48.078;11.968;2023-06-05T03:06:28;16.80;99.90
16829;DHT22;8531;48.078;11.968;2023-06-05T03:08:59;16.80;99.90
16829;DHT22;8531;48.078;11.968;2023-06-05T03:11:25;16.80;99.90
16829;DHT22;8531;48.078;11.968;2023-06-05T03:13:52;16.90;99.90
16829;DHT22;8531;48.078;11.968;2023-06-05T03:16:18;16.90;99.90
16829;DHT22;8531;48.078;11.968;2023-06-05T03:18:44;16.80;99.90
16829;DHT22;8531;48.078;11.968;2023-06-05T03:21:11;16.80;99.90
16829;DHT22;8531;48.078;11.968;2023-06-05T03:23:37;16.60;99.90
16829;DHT22;8531;48.078;11.968;2023-06-05T03:26:02;16.70;99.90
16829;DHT22;8531;48.078;11.968;2023-06-05T03:28:29;16.80;99.90
16829;DHT22;8531;48.078;11.968;2023-06-05T03:30:59;16.60;99.90
16829;DHT22;8531;48.078;11.968;2023-06-05T03:33:25;16.60;99.90
16829;DHT22;8531;48.078;11.968;2023-06-05T03:35:51;16.50;99.90
16829;DHT22;8531;48.078;11.968;2023-06-05T03:38:18;16.50;99.90
16829;DHT22;8531;48.078;11.968;2023-06-05T03:40:44;16.50;99.90
16829;DHT22;8531;48.078;11.968;2023-06-05T03:43:10;16.50;99.90
16829;DHT22;8531;48.078;11.968;2023-06-05T03:45:37;16.40;99.90
16829;DHT22;8531;48.078;11.968;2023-06-05T03:48:05;16.50;99.90
16829;DHT22;8531;48.078;11.968;2023-06-05T03:50:31;16.50;99.90
16829;DHT22;8531;48.078;11.968;2023-06-05T03:52:59;16.40;99.90
16829;DHT22;8531;48.078;11.968;2023-06-05T03:55:34;16.40;99.90
16829;DHT22;8531;48.078;11.968;2023-06-05T03:58:16;16.40;99.90
16829;DHT22;8531;48.078;11.968;2023-06-05T04:00:43;16.40;99.90
16829;DHT22;8531;48.078;11.968;2023-06-05T04:03:10;16.40;99.90
16829;DHT22;8531;48.078;11.968;2023-06-05T04:05:37;16.30;99.90
16829;DHT22;8531;48.078;11.968;2023-06-05T04:08:04;16.30;99.90
16829;DHT22;8531;48.078;11.968;2023-06-05T04:10:29;16.30;99.90
16829;DHT22;8531;48.078;11.968;2023-06-05T04:12:55;16.30;99.90
16829;DHT22;8531;48.078;11.968;2023-06-05T04:15:24;16.30;99.90
16829;DHT22;8531;48.078;11.968;2023-06-05T04:17:51;16.40;99.90
16829;DHT22;8531;48.078;11.968;2023-06-05T04:20:16;16.50;99.90
16829;DHT22;8531;48.078;11.968;2023-06-05T04:22:43;16.40;99.90
16829;DHT22;8531;48.078;11.968;2023-06-05T04:25:09;16.40;99.90
16829;DHT22;8531;48.078;11.968;2023-06-05T04:27:39;16.30;99.90
16829;DHT22;8531;48.078;11.968;2023-06-05T04:30:06;16.30;99.90
16829;DHT22;8531;48.078;11.968;2023-06-05T04:32:32;16.30;99.90
16829;DHT22;8531;48.078;11.968;2023-06-05T04:35:00;16.40;99.90
16829;DHT22;8531;48.078;11.968;2023-06-05T04:37:26;16.40;99.90
16829;DHT22;8531;48.078;11.968;2023-06-05T04:39:52;16.50;99.90
16829;DHT22;8531;48.078;11.968;2023-06-05T04:42:17;16.40;99.90
16829;DHT22;8531;48.078;11.968;2023-06-05T04:44:43;16.50;99.90
16829;DHT22;8531;48.078;11.968;2023-06-05T04:47:09;16.30;99.90
16829;DHT22;8531;48.078;11.968;2023-06-05T04:49:35;16.30;99.90
16829;DHT22;8531;48.078;11.968;2023-06-05T04:52:01;16.30;99.90
16829;DHT22;8531;48.078;11.968;2023-06-05T04:54:26;16.30;99.90
16829;DHT22;8531;48.078;11.968;2023-06-05T04:56:52;16.30;99.90
16829;DHT22;8531;48.078;11.968;2023-06-05T04:59:18;16.40;99.90
16829;DHT22;8531;48.078;11.968;2023-06-05T05:01:44;16.30;99.90
16829;DHT22;8531;48.078;11.968;2023-06-05T05:04:10;16.40;99.90
16829;DHT22;8531;48.078;11.968;2023-06-05T05:06:37;16.40;99.90
16829;DHT22;8531;48.078;11.968;2023-06-05T05:09:04;16.30;99.90
16829;DHT22;8531;48.078;11.968;2023-06-05T05:11:29;16.30;99.90
16829;DHT22;8531;48.078;11.968;2023-06-05T05:13:55;16.30;99.90
16829;DHT22;8531;48.078;11.968;2023-06-05T05:16:21;16.40;99.90
16829;DHT22;8531;48.078;11.968;2023-06-05T05:18:48;16.30;99.90
16829;DHT22;8531;48.078;11.968;2023-06-05T05:21:13;16.30;99.90
16829;DHT22;8531;48.078;11.968;2023-06-05T05:23:39;16.30;99.90
16829;DHT22;8531;48.078;11.968;2023-06-05T05:26:06;16.40;99.90
16829;DHT22;8531;48.078;11.968;2023-06-05T05:28:32;16.50;99.90
16829;DHT22;8531;48.078;11.968;2023-06-05T05:30:58;16.60;99.90
16829;DHT22;8531;48.078;11.968;2023-06-05T05:33:24;16.60;99.90
16829;DHT22;8531;48.078;11.968;2023-06-05T05:35:49;16.50;99.90
16829;DHT22;8531;48.078;11.968;2023-06-05T05:38:16;16.60;99.90
16829;DHT22;8531;48.078;11.968;2023-06-05T05:40:41;16.70;99.90
16829;DHT22;8531;48.078;11.968;2023-06-05T05:43:07;16.70;99.90
16829;DHT22;8531;48.078;11.968;2023-06-05T05:45:33;16.60;99.90
16829;DHT22;8531;48.078;11.968;2023-06-05T05:47:59;16.80;99.90
16829;DHT22;8531;48.078;11.968;2023-06-05T05:50:25;16.80;99.90
16829;DHT22;8531;48.078;11.968;2023-06-05T05:52:50;16.80;99.90
16829;DHT22;8531;48.078;11.968;2023-06-05T05:55:18;16.80;99.90
16829;DHT22;8531;48.078;11.968;2023-06-05T05:57:44;16.90;99.90
16829;DHT22;8531;48.078;11.968;2023-06-05T06:00:10;17.00;99.90
16829;DHT22;8531;48.078;11.968;2023-06-05T06:02:41;16.90;99.90
16829;DHT22;8531;48.078;11.968;2023-06-05T06:05:07;16.90;99.90
16829;DHT22;8531;48.078;11.968;2023-06-05T06:07:33;17.00;99.90
16829;DHT22;8531;48.078;11.968;2023-06-05T06:10:00;17.00;99.90
16829;DHT22;8531;48.078;11.968;2023-06-05T06:12:26;16.90;99.90
16829;DHT22;8531;48.078;11.968;2023-06-05T06:14:54;16.80;99.90
16829;DHT22;8531;48.078;11.968;2023-06-05T06:17:20;16.90;99.90
16829;DHT22;8531;48.078;11.968;2023-06-05T06:19:46;17.00;99.90
16829;DHT22;8531;48.078;11.968;2023-06-05T06:22:13;17.00;99.90
16829;DHT22;8531;48.078;11.968;2023-06-05T06:24:39;16.90;99.90
16829;DHT22;8531;48.078;11.968;2023-06-05T06:27:06;16.90;99.90
16829;DHT22;8531;48.078;11.968;2023-06-05T06:29:32;16.90;99.90
16829;DHT22;8531;48.078;11.968;2023-06-05T06:31:58;17.00;99.90
16829;DHT22;8531;48.078;11.968;2023-06-05T06:34:23;17.00;99.90
16829;DHT22;8531;48.078;11.968;2023-06-05T06:36:50;17.20;99.90
16829;DHT22;8531;48.078;11.968;2023-06-05T06:39:16;17.30;99.90
16829;DHT22;8531;48.078;11.968;2023-06-05T06:41:44;17.40;99.90
16829;DHT22;8531;48.078;11.968;2023-06-05T06:44:10;17.60;99.90
16829;DHT22;8531;48.078;11.968;2023-06-05T06:46:36;17.60;99.90
16829;DHT22;8531;48.078;11.968;2023-06-05T06:49:02;17.50;99.90
16829;DHT22;8531;48.078;11.968;2023-06-05T06:51:28;17.60;99.90
16829;DHT22;8531;48.078;11.968;2023-06-05T06:53:55;17.60;99.90
16829;DHT22;8531;48.078;11.968;2023-06-05T06:56:21;17.70;99.90
16829;DHT22;8531;48.078;11.968;2023-06-05T06:58:47;17.80;99.90
16829;DHT22;8531;48.078;11.968;2023-06-05T07:01:14;17.80;99.90
16829;DHT22;8531;48.078;11.968;2023-06-05T07:03:40;17.90;99.90
16829;DHT22;8531;48.078;11.968;2023-06-05T07:06:09;18.00;99.90
16829;DHT22;8531;48.078;11.968;2023-06-05T07:08:34;18.20;99.90
16829;DHT22;8531;48.078;11.968;2023-06-05T07:11:00;18.40;99.90
16829;DHT22;8531;48.078;11.968;2023-06-05T07:13:26;18.20;99.90
16829;DHT22;8531;48.078;11.968;2023-06-05T07:15:52;18.20;99.90
16829;DHT22;8531;48.078;11.968;2023-06-05T07:18:18;18.40;99.90
16829;DHT22;8531;48.078;11.968;2023-06-05T07:20:45;18.40;99.90
16829;DHT22;8531;48.078;11.968;2023-06-05T07:23:10;18.40;99.90
16829;DHT22;8531;48.078;11.968;2023-06-05T07:25:36;18.40;99.90
16829;DHT22;8531;48.078;11.968;2023-06-05T07:28:07;18.50;99.90
16829;DHT22;8531;48.078;11.968;2023-06-05T07:30:33;18.60;99.90
16829;DHT22;8531;48.078;11.968;2023-06-05T07:32:59;18.80;99.90
16829;DHT22;8531;48.078;11.968;2023-06-05T07:35:25;18.90;99.90
16829;DHT22;8531;48.078;11.968;2023-06-05T07:37:50;18.90;99.90
16829;DHT22;8531;48.078;11.968;2023-06-05T07:40:17;18.80;99.90
16829;DHT22;8531;48.078;11.968;2023-06-05T07:42:43;18.70;99.90
16829;DHT22;8531;48.078;11.968;2023-06-05T07:45:09;18.70;99.90
16829;DHT22;8531;48.078;11.968;2023-06-05T07:47:34;18.70;99.90
16829;DHT22;8531;48.078;11.968;2023-06-05T07:50:01;18.90;99.90
16829;DHT22;8531;48.078;11.968;2023-06-05T07:52:30;18.90;99.90
16829;DHT22;8531;48.078;11.968;2023-06-05T07:54:56;18.90;99.90
16829;DHT22;8531;48.078;11.968;2023-06-05T07:57:23;18.80;99.90
16829;DHT22;8531;48.078;11.968;2023-06-05T07:59:53;18.80;99.90
16829;DHT22;8531;48.078;11.968;2023-06-05T08:02:20;19.10;99.90
16829;DHT22;8531;48.078;11.968;2023-06-05T08:04:46;19.10;99.90
16829;DHT22;8531;48.078;11.968;2023-06-05T08:07:13;19.20;99.90
16829;DHT22;8531;48.078;11.968;2023-06-05T08:09:38;19.20;99.90
16829;DHT22;8531;48.078;11.968;2023-06-05T08:12:05;19.20;99.90
16829;DHT22;8531;48.078;11.968;2023-06-05T08:14:31;19.20;99.90
16829;DHT22;8531;48.078;11.968;2023-06-05T08:16:57;19.40;99.90
16829;DHT22;8531;48.078;11.968;2023-06-05T08:19:23;19.30;99.90
16829;DHT22;8531;48.078;11.968;2023-06-05T08:21:53;19.40;99.90
16829;DHT22;8531;48.078;11.968;2023-06-05T08:24:25;19.40;99.90
16829;DHT22;8531;48.078;11.968;2023-06-05T08:26:52;19.40;99.90
16829;DHT22;8531;48.078;11.968;2023-06-05T08:29:18;19.60;99.90
16829;DHT22;8531;48.078;11.968;2023-06-05T08:31:44;19.60;99.90
16829;DHT22;8531;48.078;11.968;2023-06-05T08:34:09;19.80;99.90
16829;DHT22;8531;48.078;11.968;2023-06-05T08:36:35;19.70;99.90
16829;DHT22;8531;48.078;11.968;2023-06-05T08:39:02;19.70;99.90
16829;DHT22;8531;48.078;11.968;2023-06-05T08:41:30;19.70;99.90
16829;DHT22;8531;48.078;11.968;2023-06-05T08:44:01;19.60;99.90
16829;DHT22;8531;48.078;11.968;2023-06-05T08:46:30;19.50;99.90
16829;DHT22;8531;48.078;11.968;2023-06-05T08:49:07;19.70;99.90
16829;DHT22;8531;48.078;11.968;2023-06-05T08:51:33;19.80;99.90
16829;DHT22;8531;48.078;11.968;2023-06-05T08:54:05;19.90;99.90
16829;DHT22;8531;48.078;11.968;2023-06-05T08:56:38;20.20;99.90
16829;DHT22;8531;48.078;11.968;2023-06-05T08:59:06;20.70;99.90
16829;DHT22;8531;48.078;11.968;2023-06-05T09:01:31;20.90;99.90
16829;DHT22;8531;48.078;11.968;2023-06-05T09:04:02;20.80;99.90
16829;DHT22;8531;48.078;11.968;2023-06-05T09:06:29;21.20;99.90
16829;DHT22;8531;48.078;11.968;2023-06-05T09:09:00;20.80;99.90
16829;DHT22;8531;48.078;11.968;2023-06-05T09:11:30;21.00;99.90
16829;DHT22;8531;48.078;11.968;2023-06-05T09:13:58;20.90;99.90
16829;DHT22;8531;48.078;11.968;2023-06-05T09:16:39;20.90;99.90
16829;DHT22;8531;48.078;11.968;2023-06-05T09:19:07;21.00;99.90
16829;DHT22;8531;48.078;11.968;2023-06-05T09:21:33;21.40;99.90
16829;DHT22;8531;48.078;11.968;2023-06-05T09:29:23;22.10;99.90
16829;DHT22;8531;48.078;11.968;2023-06-05T09:31:49;22.40;99.90
16829;DHT22;8531;48.078;11.968;2023-06-05T09:36:48;22.20;99.90
16829;DHT22;8531;48.078;11.968;2023-06-05T09:39:17;22.20;99.90
16829;DHT22;8531;48.078;11.968;2023-06-05T09:41:46;22.10;99.90
16829;DHT22;8531;48.078;11.968;2023-06-05T09:49:19;22.70;99.90
16829;DHT22;8531;48.078;11.968;2023-06-05T09:51:45;22.60;99.90
16829;DHT22;8531;48.078;11.968;2023-06-05T09:54:13;22.90;99.90
16829;DHT22;8531;48.078;11.968;2023-06-05T09:56:46;23.40;99.90
16829;DHT22;8531;48.078;11.968;2023-06-05T09:59:20;23.00;99.90
16829;DHT22;8531;48.078;11.968;2023-06-05T10:01:49;22.60;99.90
16829;DHT22;8531;48.078;11.968;2023-06-05T10:04:18;22.50;99.90
16829;DHT22;8531;48.078;11.968;2023-06-05T10:06:45;22.30;99.90
16829;DHT22;8531;48.078;11.968;2023-06-05T10:09:14;22.50;99.90
16829;DHT22;8531;48.078;11.968;2023-06-05T10:11:40;22.10;99.90
16829;DHT22;8531;48.078;11.968;2023-06-05T10:14:09;22.40;99.90
16829;DHT22;8531;48.078;11.968;2023-06-05T10:16:35;22.30;99.90
16829;DHT22;8531;48.078;11.968;2023-06-05T10:19:03;22.20;99.90
16829;DHT22;8531;48.078;11.968;2023-06-05T10:21:29;22.10;99.90
16829;DHT22;8531;48.078;11.968;2023-06-05T10:24:04;21.90;99.90
16829;DHT22;8531;48.078;11.968;2023-06-05T10:26:44;21.80;99.90
16829;DHT22;8531;48.078;11.968;2023-06-05T10:32:03;21.80;99.90
16829;DHT22;8531;48.078;11.968;2023-06-05T10:34:48;21.50;99.90
16829;DHT22;8531;48.078;11.968;2023-06-05T10:40:19;21.70;99.90
16829;DHT22;8531;48.078;11.968;2023-06-05T10:42:45;21.90;99.90
16829;DHT22;8531;48.078;11.968;2023-06-05T10:45:10;21.50;99.90
16829;DHT22;8531;48.078;11.968;2023-06-05T10:52:45;21.40;99.90
16829;DHT22;8531;48.078;11.968;2023-06-05T10:55:11;21.30;99.90
16829;DHT22;8531;48.078;11.968;2023-06-05T11:00:32;21.20;99.90
16829;DHT22;8531;48.078;11.968;2023-06-05T11:02:58;21.30;99.90
16829;DHT22;8531;48.078;11.968;2023-06-05T11:05:24;21.50;99.90
16829;DHT22;8531;48.078;11.968;2023-06-05T11:08:15;21.30;99.90
16829;DHT22;8531;48.078;11.968;2023-06-05T11:11:06;21.40;99.90
16829;DHT22;8531;48.078;11.968;2023-06-05T11:14:10;21.40;99.90
16829;DHT22;8531;48.078;11.968;2023-06-05T11:16:35;21.30;99.90
16829;DHT22;8531;48.078;11.968;2023-06-05T11:24:37;21.40;99.90
16829;DHT22;8531;48.078;11.968;2023-06-05T11:27:04;21.70;99.90
16829;DHT22;8531;48.078;11.968;2023-06-05T11:29:31;21.70;99.90
16829;DHT22;8531;48.078;11.968;2023-06-05T11:31:57;22.00;99.90
16829;DHT22;8531;48.078;11.968;2023-06-05T11:34:23;22.20;99.90
16829;DHT22;8531;48.078;11.968;2023-06-05T11:36:49;21.90;99.90
16829;DHT22;8531;48.078;11.968;2023-06-05T11:39:15;22.00;99.90
16829;DHT22;8531;48.078;11.968;2023-06-05T11:41:45;22.30;99.90
16829;DHT22;8531;48.078;11.968;2023-06-05T11:44:11;22.00;99.90
16829;DHT22;8531;48.078;11.968;2023-06-05T11:46:41;22.30;99.90
16829;DHT22;8531;48.078;11.968;2023-06-05T11:49:24;22.60;99.90
16829;DHT22;8531;48.078;11.968;2023-06-05T11:51:51;22.20;99.90
16829;DHT22;8531;48.078;11.968;2023-06-05T11:54:27;22.30;99.90
16829;DHT22;8531;48.078;11.968;2023-06-05T11:57:01;22.30;99.90
16829;DHT22;8531;48.078;11.968;2023-06-05T11:59:35;22.00;99.90
16829;DHT22;8531;48.078;11.968;2023-06-05T12:02:00;22.10;99.90
16829;DHT22;8531;48.078;11.968;2023-06-05T12:04:28;21.90;99.90
16829;DHT22;8531;48.078;11.968;2023-06-05T12:06:55;21.90;99.90
16829;DHT22;8531;48.078;11.968;2023-06-05T12:09:21;21.90;99.90
16829;DHT22;8531;48.078;11.968;2023-06-05T12:11:47;21.90;99.90
16829;DHT22;8531;48.078;11.968;2023-06-05T12:14:30;21.80;99.90
16829;DHT22;8531;48.078;11.968;2023-06-05T12:16:56;21.70;99.90
16829;DHT22;8531;48.078;11.968;2023-06-05T12:19:22;21.80;99.90
16829;DHT22;8531;48.078;11.968;2023-06-05T12:21:49;21.90;99.90
16829;DHT22;8531;48.078;11.968;2023-06-05T12:24:27;22.00;99.90
16829;DHT22;8531;48.078;11.968;2023-06-05T12:27:00;21.80;99.90
16829;DHT22;8531;48.078;11.968;2023-06-05T12:29:31;22.00;99.90
16829;DHT22;8531;48.078;11.968;2023-06-05T12:31:59;22.00;99.90
16829;DHT22;8531;48.078;11.968;2023-06-05T12:34:42;22.30;99.90
16829;DHT22;8531;48.078;11.968;2023-06-05T12:37:10;22.30;99.90
16829;DHT22;8531;48.078;11.968;2023-06-05T12:39:38;22.20;99.90
16829;DHT22;8531;48.078;11.968;2023-06-05T12:42:04;22.20;99.90
16829;DHT22;8531;48.078;11.968;2023-06-05T12:44:30;22.50;99.90
16829;DHT22;8531;48.078;11.968;2023-06-05T12:46:55;22.50;99.90
16829;DHT22;8531;48.078;11.968;2023-06-05T12:49:22;22.50;99.90
16829;DHT22;8531;48.078;11.968;2023-06-05T12:51:48;22.60;99.90
16829;DHT22;8531;48.078;11.968;2023-06-05T12:54:14;22.70;99.90
16829;DHT22;8531;48.078;11.968;2023-06-05T12:56:43;22.70;99.90
16829;DHT22;8531;48.078;11.968;2023-06-05T12:59:11;22.80;99.90
16829;DHT22;8531;48.078;11.968;2023-06-05T13:01:36;22.60;99.90
16829;DHT22;8531;48.078;11.968;2023-06-05T13:04:05;22.30;99.90
16829;DHT22;8531;48.078;11.968;2023-06-05T13:06:30;22.40;99.90
16829;DHT22;8531;48.078;11.968;2023-06-05T13:08:59;22.40;99.90
16829;DHT22;8531;48.078;11.968;2023-06-05T13:11:26;22.50;99.90
16829;DHT22;8531;48.078;11.968;2023-06-05T13:13:52;22.70;99.90
16829;DHT22;8531;48.078;11.968;2023-06-05T13:16:17;22.40;99.90
16829;DHT22;8531;48.078;11.968;2023-06-05T13:18:43;22.50;99.90
16829;DHT22;8531;48.078;11.968;2023-06-05T13:21:08;22.30;99.90
16829;DHT22;8531;48.078;11.968;2023-06-05T13:23:34;21.90;99.90
16829;DHT22;8531;48.078;11.968;2023-06-05T13:26:00;22.10;99.90
16829;DHT22;8531;48.078;11.968;2023-06-05T13:28:26;22.10;99.90
16829;DHT22;8531;48.078;11.968;2023-06-05T13:30:52;22.20;99.90
16829;DHT22;8531;48.078;11.968;2023-06-05T13:33:19;22.30;99.90
16829;DHT22;8531;48.078;11.968;2023-06-05T13:35:45;22.50;99.90
16829;DHT22;8531;48.078;11.968;2023-06-05T13:38:10;22.70;99.90
16829;DHT22;8531;48.078;11.968;2023-06-05T13:40:36;22.70;99.90
16829;DHT22;8531;48.078;11.968;2023-06-05T13:43:02;22.70;99.90
16829;DHT22;8531;48.078;11.968;2023-06-05T13:45:27;22.50;99.90
16829;DHT22;8531;48.078;11.968;2023-06-05T13:47:53;22.60;99.90
16829;DHT22;8531;48.078;11.968;2023-06-05T13:50:19;22.60;99.90
16829;DHT22;8531;48.078;11.968;2023-06-05T13:52:48;22.70;99.90
16829;DHT22;8531;48.078;11.968;2023-06-05T13:55:14;22.90;99.90
16829;DHT22;8531;48.078;11.968;2023-06-05T13:57:40;22.80;99.90
16829;DHT22;8531;48.078;11.968;2023-06-05T14:00:06;22.70;99.90
16829;DHT22;8531;48.078;11.968;2023-06-05T14:02:33;22.90;99.90
16829;DHT22;8531;48.078;11.968;2023-06-05T14:04:59;23.00;99.90
16829;DHT22;8531;48.078;11.968;2023-06-05T14:07:24;23.20;99.90
16829;DHT22;8531;48.078;11.968;2023-06-05T14:09:50;23.00;99.90
16829;DHT22;8531;48.078;11.968;2023-06-05T14:12:16;22.90;99.90
16829;DHT22;8531;48.078;11.968;2023-06-05T14:14:43;23.00;99.90
16829;DHT22;8531;48.078;11.968;2023-06-05T14:17:08;23.20;99.90
16829;DHT22;8531;48.078;11.968;2023-06-05T14:19:34;23.50;99.90
16829;DHT22;8531;48.078;11.968;2023-06-05T14:22:01;23.20;99.90
16829;DHT22;8531;48.078;11.968;2023-06-05T14:24:26;22.90;99.90
16829;DHT22;8531;48.078;11.968;2023-06-05T14:26:53;22.80;99.90
16829;DHT22;8531;48.078;11.968;2023-06-05T14:29:20;22.80;99.90
16829;DHT22;8531;48.078;11.968;2023-06-05T14:31:46;22.60;99.90
16829;DHT22;8531;48.078;11.968;2023-06-05T14:34:11;22.50;99.90
16829;DHT22;8531;48.078;11.968;2023-06-05T14:36:37;22.70;99.90
16829;DHT22;8531;48.078;11.968;2023-06-05T14:39:03;22.90;99.90
16829;DHT22;8531;48.078;11.968;2023-06-05T14:41:32;22.90;99.90
16829;DHT22;8531;48.078;11.968;2023-06-05T14:43:58;22.90;99.90
16829;DHT22;8531;48.078;11.968;2023-06-05T14:46:24;22.60;99.90
16829;DHT22;8531;48.078;11.968;2023-06-05T14:48:50;22.60;99.90
16829;DHT22;8531;48.078;11.968;2023-06-05T14:51:17;22.40;99.90
16829;DHT22;8531;48.078;11.968;2023-06-05T14:53:42;22.10;99.90
16829;DHT22;8531;48.078;11.968;2023-06-05T14:56:08;21.90;99.90
16829;DHT22;8531;48.078;11.968;2023-06-05T14:58:34;21.70;99.90
16829;DHT22;8531;48.078;11.968;2023-06-05T15:01:00;21.80;99.90
16829;DHT22;8531;48.078;11.968;2023-06-05T15:03:25;21.60;99.90
16829;DHT22;8531;48.078;11.968;2023-06-05T15:05:52;21.20;99.90
16829;DHT22;8531;48.078;11.968;2023-06-05T15:08:18;21.40;99.90
16829;DHT22;8531;48.078;11.968;2023-06-05T15:10:45;21.40;99.90
16829;DHT22;8531;48.078;11.968;2023-06-05T15:13:10;21.20;99.90
16829;DHT22;8531;48.078;11.968;2023-06-05T15:15:36;21.20;99.90
16829;DHT22;8531;48.078;11.968;2023-06-05T15:18:03;21.00;99.90
16829;DHT22;8531;48.078;11.968;2023-06-05T15:20:28;21.10;99.90
16829;DHT22;8531;48.078;11.968;2023-06-05T15:22:55;21.00;99.90
16829;DHT22;8531;48.078;11.968;2023-06-05T15:25:20;20.90;99.90
16829;DHT22;8531;48.078;11.968;2023-06-05T15:27:48;20.90;99.90
16829;DHT22;8531;48.078;11.968;2023-06-05T15:30:14;21.20;99.90
16829;DHT22;8531;48.078;11.968;2023-06-05T15:32:40;21.10;99.90
16829;DHT22;8531;48.078;11.968;2023-06-05T15:35:06;20.90;99.90
16829;DHT22;8531;48.078;11.968;2023-06-05T15:37:32;21.10;99.90
16829;DHT22;8531;48.078;11.968;2023-06-05T15:39:58;21.20;99.90
16829;DHT22;8531;48.078;11.968;2023-06-05T15:42:28;20.90;99.90
16829;DHT22;8531;48.078;11.968;2023-06-05T15:45:08;21.00;99.90
16829;DHT22;8531;48.078;11.968;2023-06-05T15:47:34;21.00;99.90
16829;DHT22;8531;48.078;11.968;2023-06-05T15:50:01;21.00;99.90
16829;DHT22;8531;48.078;11.968;2023-06-05T15:52:26;21.00;99.90
16829;DHT22;8531;48.078;11.968;2023-06-05T15:54:56;20.80;99.90
16829;DHT22;8531;48.078;11.968;2023-06-05T15:57:24;20.90;99.90
16829;DHT22;8531;48.078;11.968;2023-06-05T15:59:51;21.00;99.90
16829;DHT22;8531;48.078;11.968;2023-06-05T16:02:18;21.10;99.90
16829;DHT22;8531;48.078;11.968;2023-06-05T16:04:43;20.80;99.90
16829;DHT22;8531;48.078;11.968;2023-06-05T16:07:09;20.90;99.90